Time;durP1;ratioP1;P1;durP2;ratioP2;P2;SDS_P1;SDS_P2;PMS_P1;PMS_P2;Temp;Humidity;BMP_temperature;BMP_pressure;BME280_temperature;BME280_humidity;BME280_pressure;Samples;Min_cycle;Max_cycle;Signal;HPM_P1;HPM_P2
2022/01/09 00:01:21;;;;;;;1.88;1.33;;;4.10;99.90;;;;;;5013414;28;20049;-83
2022/01/09 00:03:47;;;;;;;2.63;1.75;;;4.00;99.90;;;;;;5029522;28;20033;-83
2022/01/09 00:06:14;;;;;;;2.47;1.55;;;4.50;99.90;;;;;;4988370;28;20038;-83
2022/01/09 00:08:40;;;;;;;2.22;1.30;;;4.70;99.90;;;;;;5029980;28;20196;-82
2022/01/09 00:11:06;;;;;;;0.50;0.50;;;4.70;99.90;;;;;;5032368;28;20072;-83
2022/01/09 00:13:31;;;;;;;2.05;1.20;;;4.10;99.90;;;;;;5034177;28;20485;-83
2022/01/09 00:15:57;;;;;;;2.58;1.85;;;4.40;99.90;;;;;;5031978;28;20042;-83
2022/01/09 00:18:22;;;;;;;4.10;1.92;;;4.10;99.90;;;;;;5033392;28;20045;-84
2022/01/09 00:20:48;;;;;;;4.20;1.90;;;4.10;99.90;;;;;;5015744;28;20043;-84
2022/01/09 00:23:14;;;;;;;4.00;2.08;;;4.10;99.90;;;;;;5030552;28;20482;-83
2022/01/09 00:25:39;;;;;;;2.53;1.65;;;4.10;99.90;;;;;;5014998;28;20041;-83
2022/01/09 00:28:05;;;;;;;2.28;1.88;;;4.20;99.90;;;;;;5017677;28;20103;-83
2022/01/09 00:30:31;;;;;;;2.97;1.90;;;4.20;99.90;;;;;;5017996;28;20103;-82
2022/01/09 00:32:57;;;;;;;0.63;0.63;;;4.20;99.90;;;;;;5018169;28;20069;-83
2022/01/09 00:35:23;;;;;;;1.48;0.90;;;4.20;99.90;;;;;;5017462;28;20041;-83
2022/01/09 00:37:49;;;;;;;3.40;1.85;;;4.20;99.90;;;;;;5016923;28;20466;-83
2022/01/09 00:40:16;;;;;;;2.05;1.40;;;4.20;99.90;;;;;;5029166;28;20029;-83
2022/01/09 00:42:57;;;;;;;2.60;1.40;;;4.50;99.90;;;;;;5026658;28;20081;-83
2022/01/09 00:45:22;;;;;;;1.58;1.15;;;4.10;99.90;;;;;;5027322;28;20073;-83
2022/01/09 00:47:48;;;;;;;0.77;0.75;;;4.20;99.90;;;;;;5017560;28;20514;-83
2022/01/09 00:50:14;;;;;;;2.17;1.55;;;4.20;99.90;;;;;;5016774;28;20041;-83
2022/01/09 00:52:43;;;;;;;1.25;0.73;;;4.20;99.90;;;;;;5018087;28;20041;-83
2022/01/09 00:55:10;;;;;;;2.33;1.52;;;4.20;99.90;;;;;;5033832;28;20049;-83
2022/01/09 00:57:35;;;;;;;1.65;1.30;;;4.20;99.90;;;;;;5017260;28;20061;-83
2022/01/09 01:00:04;;;;;;;2.05;1.10;;;4.20;99.90;;;;;;5029208;28;20037;-83
2022/01/09 01:02:29;;;;;;;2.45;1.55;;;4.20;99.90;;;;;;5011571;28;20049;-83
2022/01/09 01:04:55;;;;;;;1.92;1.33;;;4.30;99.90;;;;;;5008518;28;20572;-83
2022/01/09 01:07:21;;;;;;;1.88;1.05;;;4.20;99.90;;;;;;5014026;28;20069;-83
2022/01/09 01:09:47;;;;;;;1.83;1.30;;;4.30;99.90;;;;;;5004118;28;20042;-83
2022/01/09 01:12:14;;;;;;;2.08;1.58;;;4.30;99.90;;;;;;5017370;28;20095;-83
2022/01/09 01:14:39;;;;;;;3.10;2.17;;;4.30;99.90;;;;;;5009230;28;20574;-82
2022/01/09 01:17:09;;;;;;;0.93;0.80;;;4.20;99.90;;;;;;5016762;28;20120;-83
2022/01/09 01:19:34;;;;;;;3.97;2.40;;;4.30;99.90;;;;;;5017286;28;20454;-83
2022/01/09 01:22:01;;;;;;;1.83;1.15;;;4.20;99.90;;;;;;5029235;28;20046;-82
2022/01/09 01:24:27;;;;;;;1.27;0.93;;;4.20;99.90;;;;;;5017202;28;20033;-83
2022/01/09 01:26:53;;;;;;;1.00;0.90;;;4.20;99.90;;;;;;5016735;28;20072;-83
2022/01/09 01:29:18;;;;;;;1.80;1.25;;;4.20;99.90;;;;;;5016972;28;20045;-83
2022/01/09 01:31:44;;;;;;;1.33;0.93;;;4.20;99.90;;;;;;5017190;28;20041;-83
2022/01/09 01:34:12;;;;;;;0.75;0.73;;;4.20;99.90;;;;;;5016945;28;20042;-83
2022/01/09 01:36:38;;;;;;;0.70;0.68;;;4.20;99.90;;;;;;5032938;28;20069;-83
2022/01/09 01:39:04;;;;;;;1.08;0.88;;;4.30;99.90;;;;;;5016607;28;20037;-83
2022/01/09 01:41:29;;;;;;;0.73;0.50;;;4.30;99.90;;;;;;5016934;28;20052;-83
2022/01/09 01:43:55;;;;;;;2.55;1.80;;;4.30;99.90;;;;;;5016827;28;20041;-83
2022/01/09 01:46:20;;;;;;;1.95;1.33;;;4.30;99.90;;;;;;5016667;28;20052;-82
2022/01/09 01:48:46;;;;;;;0.50;0.50;;;4.40;99.90;;;;;;5016825;28;20049;-83
2022/01/09 01:51:11;;;;;;;0.30;0.30;;;4.40;99.90;;;;;;5025034;28;20041;-82
2022/01/09 01:53:39;;;;;;;0.57;0.55;;;4.40;99.90;;;;;;5016985;28;20132;-83
2022/01/09 01:56:05;;;;;;;7.78;0.98;;;4.50;99.90;;;;;;5016307;28;20076;-84
2022/01/09 01:58:34;;;;;;;0.73;0.60;;;4.60;99.90;;;;;;5016721;28;20042;-83
2022/01/09 02:01:00;;;;;;;0.63;0.63;;;4.60;99.90;;;;;;5016237;28;20084;-83
2022/01/09 02:03:26;;;;;;;1.10;0.70;;;4.60;99.90;;;;;;5016535;28;20156;-83
2022/01/09 02:05:51;;;;;;;0.90;0.77;;;4.70;99.90;;;;;;5032973;28;20167;-83
2022/01/09 02:08:17;;;;;;;5.00;1.30;;;4.70;99.90;;;;;;5016134;28;20800;-82
2022/01/09 02:10:45;;;;;;;1.65;1.13;;;4.70;99.90;;;;;;5016519;28;20103;-83
2022/01/09 02:13:11;;;;;;;1.98;0.70;;;4.80;99.90;;;;;;5016720;28;20053;-83
2022/01/09 02:15:42;;;;;;;3.03;1.58;;;4.90;99.90;;;;;;5016172;28;20124;-83
2022/01/09 02:18:10;;;;;;;1.13;0.85;;;4.90;99.90;;;;;;5015919;28;20044;-83
2022/01/09 02:20:37;;;;;;;0.77;0.50;;;5.00;99.90;;;;;;5016081;28;20037;-83
2022/01/09 02:23:05;;;;;;;1.95;0.68;;;5.00;99.90;;;;;;5016310;28;20088;-83
2022/01/09 02:25:32;;;;;;;3.35;0.98;;;5.00;99.90;;;;;;5032609;28;20121;-82
2022/01/09 02:27:58;;;;;;;7.72;0.75;;;5.10;99.90;;;;;;5016080;28;20042;-83
2022/01/09 02:30:24;;;;;;;0.95;0.60;;;5.10;99.90;;;;;;5016326;28;20503;-83
2022/01/09 02:32:49;;;;;;;0.60;0.50;;;5.10;99.90;;;;;;5016369;28;20083;-83
2022/01/09 02:35:15;;;;;;;0.82;0.43;;;5.10;99.90;;;;;;5015874;28;20034;-83
2022/01/09 02:37:41;;;;;;;0.50;0.50;;;5.10;99.90;;;;;;5015423;28;20038;-83
2022/01/09 02:40:07;;;;;;;0.50;0.50;;;5.20;99.90;;;;;;5013225;28;20514;-83
2022/01/09 02:42:33;;;;;;;2.45;0.63;;;5.20;99.90;;;;;;5018112;28;20050;-84
2022/01/09 02:44:59;;;;;;;1.77;1.02;;;5.20;99.90;;;;;;5015345;28;20497;-83
2022/01/09 02:47:29;;;;;;;2.47;0.77;;;5.30;99.90;;;;;;5015499;28;20402;-83
2022/01/09 02:49:56;;;;;;;1.95;1.25;;;5.30;99.90;;;;;;4999797;28;20127;-83
2022/01/09 02:53:13;;;;;;;0.40;0.40;;;5.40;99.90;;;;;;5015705;28;20041;-83
2022/01/09 02:55:11;;;;;;;2.38;1.17;;;5.40;99.90;;;;;;5021559;28;20041;-83
2022/01/09 02:58:07;;;;;;;1.52;0.73;;;5.40;99.90;;;;;;5015277;28;20041;-83
2022/01/09 03:00:36;;;;;;;8.53;1.37;;;5.40;99.90;;;;;;5011396;28;20056;-84
2022/01/09 03:03:02;;;;;;;4.43;1.20;;;5.40;99.90;;;;;;5015525;28;20439;-84
2022/01/09 03:05:29;;;;;;;7.07;3.33;;;5.40;99.90;;;;;;5031971;28;20431;-83
2022/01/09 03:07:55;;;;;;;3.80;1.20;;;5.40;99.90;;;;;;5031533;28;20041;-83
2022/01/09 03:10:22;;;;;;;8.50;1.48;;;5.40;99.90;;;;;;5015461;28;20048;-83
2022/01/09 03:12:49;;;;;;;10.90;1.33;;;5.40;99.90;;;;;;5014661;28;20042;-84
2022/01/09 03:15:15;;;;;;;3.55;1.50;;;5.40;99.90;;;;;;4999118;28;20119;-83
2022/01/09 03:17:42;;;;;;;4.38;1.35;;;5.40;99.90;;;;;;5031659;28;20064;-84
2022/01/09 03:20:14;;;;;;;1.75;0.65;;;5.40;99.90;;;;;;5015568;28;20044;-83
2022/01/09 03:22:40;;;;;;;14.23;2.92;;;5.40;99.90;;;;;;5015215;28;20091;-84
2022/01/09 03:25:06;;;;;;;8.00;2.03;;;5.40;99.90;;;;;;5015440;28;20128;-84
2022/01/09 03:27:32;;;;;;;17.40;2.80;;;5.50;99.90;;;;;;5015086;28;20088;-83
2022/01/09 03:29:57;;;;;;;10.25;1.45;;;5.50;99.90;;;;;;5015289;28;20041;-84
2022/01/09 03:32:24;;;;;;;9.88;2.90;;;5.50;99.90;;;;;;5015381;28;20043;-84
2022/01/09 03:34:50;;;;;;;11.45;2.30;;;5.60;99.90;;;;;;5015172;28;20033;-84
2022/01/09 03:37:15;;;;;;;18.42;2.25;;;5.60;99.90;;;;;;5014845;28;20380;-84
2022/01/09 03:39:41;;;;;;;12.27;3.65;;;5.60;99.90;;;;;;5031603;28;20542;-83
2022/01/09 03:42:06;;;;;;;16.65;2.38;;;5.60;99.90;;;;;;5015082;28;20030;-84
2022/01/09 03:44:32;;;;;;;20.77;3.22;;;5.70;99.90;;;;;;5015294;28;20124;-84
2022/01/09 03:46:57;;;;;;;12.07;1.75;;;5.70;99.90;;;;;;5014746;28;20041;-84
2022/01/09 03:49:23;;;;;;;6.63;0.98;;;5.70;99.90;;;;;;5015423;28;20095;-83
2022/01/09 03:51:54;;;;;;;13.20;2.75;;;5.70;99.90;;;;;;5015113;28;20048;-84
2022/01/09 03:54:21;;;;;;;12.07;2.95;;;5.80;99.90;;;;;;5015095;28;20072;-84
2022/01/09 03:56:48;;;;;;;7.85;2.05;;;5.70;99.90;;;;;;5014858;28;20037;-84
2022/01/09 03:59:14;;;;;;;4.57;1.63;;;5.80;99.90;;;;;;5015022;28;20034;-84
2022/01/09 04:01:40;;;;;;;13.32;4.18;;;5.80;99.90;;;;;;5015303;28;20042;-84
2022/01/09 04:04:05;;;;;;;15.15;1.95;;;5.70;99.90;;;;;;5015107;28;20044;-83
2022/01/09 04:06:31;;;;;;;14.13;2.42;;;5.80;99.90;;;;;;5031204;28;20044;-84
2022/01/09 04:08:59;;;;;;;8.82;2.50;;;5.80;99.90;;;;;;5014924;28;20041;-84
2022/01/09 04:11:28;;;;;;;7.97;1.65;;;5.80;99.90;;;;;;5015183;28;20060;-84
2022/01/09 04:13:54;;;;;;;11.90;2.13;;;5.80;99.90;;;;;;5031515;28;20060;-84
2022/01/09 04:16:20;;;;;;;4.22;1.10;;;5.80;99.90;;;;;;5014153;28;20081;-84
2022/01/09 04:18:46;;;;;;;9.57;2.40;;;5.80;99.90;;;;;;5014928;28;20081;-84
2022/01/09 04:21:11;;;;;;;6.47;2.78;;;5.80;99.90;;;;;;5014985;28;20033;-83
2022/01/09 04:23:38;;;;;;;11.38;3.28;;;5.80;99.90;;;;;;5015777;28;20049;-84
2022/01/09 04:26:03;;;;;;;8.77;2.17;;;5.80;99.90;;;;;;5018022;28;20562;-84
2022/01/09 04:28:29;;;;;;;11.63;2.15;;;5.80;99.90;;;;;;5018437;28;20069;-84
2022/01/09 04:30:55;;;;;;;9.23;1.70;;;5.80;99.90;;;;;;5018589;28;20049;-83
2022/01/09 04:33:20;;;;;;;7.13;1.55;;;5.80;99.90;;;;;;5018411;28;20048;-83
2022/01/09 04:35:46;;;;;;;4.93;1.08;;;5.70;99.90;;;;;;5018230;28;20048;-84
2022/01/09 04:38:11;;;;;;;8.40;1.38;;;5.70;99.90;;;;;;5017879;28;20060;-83
2022/01/09 04:40:37;;;;;;;7.72;1.40;;;5.70;99.90;;;;;;5018235;28;20679;-84
2022/01/09 04:43:06;;;;;;;7.35;2.17;;;5.70;99.90;;;;;;5018487;28;20694;-84
2022/01/09 04:45:32;;;;;;;2.35;0.98;;;5.70;99.90;;;;;;5034518;28;20056;-84
2022/01/09 04:48:05;;;;;;;1.95;0.90;;;5.70;99.90;;;;;;5017626;28;20041;-84
2022/01/09 04:50:33;;;;;;;5.93;1.52;;;5.60;99.90;;;;;;5034422;28;20061;-83
2022/01/09 04:53:04;;;;;;;11.38;1.80;;;5.70;99.90;;;;;;5017963;28;20033;-83
2022/01/09 04:55:31;;;;;;;5.40;1.30;;;5.70;99.90;;;;;;5018128;28;20085;-83
2022/01/09 04:57:57;;;;;;;3.22;0.80;;;5.60;99.90;;;;;;5017586;28;20041;-83
2022/01/09 05:00:23;;;;;;;4.25;1.75;;;5.60;99.90;;;;;;5017757;28;20465;-83
2022/01/09 05:02:49;;;;;;;7.55;1.08;;;5.60;99.90;;;;;;5017975;28;20037;-83
2022/01/09 05:05:15;;;;;;;12.30;3.67;;;5.60;99.90;;;;;;5017646;28;20064;-83
2022/01/09 05:07:42;;;;;;;2.15;0.90;;;5.60;99.90;;;;;;5033790;28;20045;-84
2022/01/09 05:10:09;;;;;;;3.83;0.90;;;5.50;99.90;;;;;;5017866;28;20033;-84
2022/01/09 05:12:35;;;;;;;3.22;0.85;;;5.50;99.90;;;;;;5017912;28;20041;-84
2022/01/09 05:15:01;;;;;;;10.05;1.15;;;5.50;99.90;;;;;;5017336;28;20037;-83
2022/01/09 05:17:27;;;;;;;2.28;0.50;;;5.50;99.90;;;;;;5017321;28;20037;-83
2022/01/09 05:19:57;;;;;;;4.53;1.45;;;5.50;99.90;;;;;;5017706;28;20033;-83
2022/01/09 05:22:26;;;;;;;5.20;1.73;;;5.50;99.90;;;;;;5017299;28;20033;-83
2022/01/09 05:24:54;;;;;;;3.90;1.38;;;5.50;99.90;;;;;;5033776;28;20124;-84
2022/01/09 05:27:21;;;;;;;7.43;1.38;;;5.40;99.90;;;;;;5016943;28;20033;-83
2022/01/09 05:29:46;;;;;;;4.07;0.85;;;5.40;99.90;;;;;;5033613;28;20048;-83
2022/01/09 05:32:12;;;;;;;2.60;0.73;;;5.40;99.90;;;;;;5017268;28;20712;-83
2022/01/09 05:34:38;;;;;;;3.00;1.33;;;5.40;99.90;;;;;;5017000;28;20124;-84
2022/01/09 05:37:04;;;;;;;9.98;1.77;;;5.40;99.90;;;;;;5016447;28;20041;-83
2022/01/09 05:39:31;;;;;;;8.55;1.15;;;5.40;99.90;;;;;;5017083;28;20047;-83
2022/01/09 05:41:58;;;;;;;3.97;1.55;;;5.40;99.90;;;;;;5017001;28;20041;-83
2022/01/09 05:44:23;;;;;;;2.03;1.27;;;5.40;99.90;;;;;;5033393;28;20175;-83
2022/01/09 05:46:49;;;;;;;13.15;1.83;;;5.40;99.90;;;;;;5016511;28;20558;-83
2022/01/09 05:49:15;;;;;;;3.60;1.05;;;5.40;99.90;;;;;;5016872;28;20651;-83
2022/01/09 05:51:40;;;;;;;5.13;2.10;;;5.30;99.90;;;;;;5016903;28;20045;-83
2022/01/09 05:54:06;;;;;;;5.57;1.38;;;5.30;99.90;;;;;;5016842;28;20048;-84
2022/01/09 05:56:32;;;;;;;8.20;1.30;;;5.30;99.90;;;;;;5016324;28;20228;-84
2022/01/09 05:58:57;;;;;;;9.07;1.85;;;5.20;99.90;;;;;;5016999;28;20120;-83
2022/01/09 06:01:23;;;;;;;3.03;1.40;;;5.20;99.90;;;;;;5016547;28;20067;-83
2022/01/09 06:03:48;;;;;;;3.80;1.00;;;5.20;99.90;;;;;;5016544;28;20096;-84
2022/01/09 06:06:14;;;;;;;9.38;1.65;;;5.20;99.90;;;;;;5016223;28;20546;-83
2022/01/09 06:08:39;;;;;;;10.80;1.58;;;5.10;99.90;;;;;;5016589;28;20494;-83
2022/01/09 06:11:05;;;;;;;8.60;1.27;;;5.10;99.90;;;;;;5016473;28;20072;-83
2022/01/09 06:13:30;;;;;;;7.53;1.38;;;5.10;99.90;;;;;;5016471;28;20133;-83
2022/01/09 06:15:56;;;;;;;1.80;0.90;;;5.10;99.90;;;;;;5032763;28;20049;-83
2022/01/09 06:18:22;;;;;;;2.38;1.10;;;5.10;99.90;;;;;;5015971;28;20072;-83
2022/01/09 06:20:48;;;;;;;2.13;1.13;;;5.10;99.90;;;;;;5032819;28;20038;-83
2022/01/09 06:23:19;;;;;;;3.47;0.95;;;5.00;99.90;;;;;;5016144;28;20084;-83
2022/01/09 06:25:45;;;;;;;6.25;1.38;;;5.10;99.90;;;;;;5016229;28;20095;-83
2022/01/09 06:28:11;;;;;;;5.95;1.33;;;5.10;99.90;;;;;;5015718;28;20454;-83
2022/01/09 06:30:36;;;;;;;2.10;0.85;;;5.10;99.90;;;;;;5016353;28;20070;-84
2022/01/09 06:33:02;;;;;;;7.63;1.40;;;5.10;99.90;;;;;;5032607;28;20124;-83
2022/01/09 06:35:27;;;;;;;9.25;1.20;;;5.10;99.90;;;;;;5016245;28;20045;-84
2022/01/09 06:37:53;;;;;;;6.72;1.55;;;5.10;99.90;;;;;;5031979;28;20069;-84
2022/01/09 06:40:19;;;;;;;3.10;1.30;;;5.20;99.90;;;;;;5015918;28;20041;-83
2022/01/09 06:42:45;;;;;;;11.60;1.10;;;5.10;99.90;;;;;;5016164;28;20122;-83
2022/01/09 06:45:10;;;;;;;3.22;1.05;;;5.30;99.90;;;;;;5015790;28;20041;-83
2022/01/09 06:47:36;;;;;;;2.38;0.90;;;5.00;99.90;;;;;;5015377;28;20052;-83
2022/01/09 06:50:02;;;;;;;2.70;0.88;;;5.00;99.90;;;;;;5032270;28;20471;-84
2022/01/09 06:52:27;;;;;;;2.75;0.68;;;5.00;99.90;;;;;;5016094;28;20087;-84
2022/01/09 06:54:53;;;;;;;6.32;1.55;;;5.00;99.90;;;;;;5015569;28;20033;-84
2022/01/09 06:57:19;;;;;;;2.90;1.30;;;5.00;99.90;;;;;;5031775;28;20072;-83
2022/01/09 06:59:44;;;;;;;5.90;1.10;;;5.00;99.90;;;;;;5032077;28;20041;-84
2022/01/09 07:02:10;;;;;;;1.40;0.98;;;4.90;99.90;;;;;;5015682;28;20038;-84
2022/01/09 07:04:35;;;;;;;0.47;0.40;;;4.90;99.90;;;;;;5015748;28;20042;-84
2022/01/09 07:07:01;;;;;;;2.78;0.80;;;4.90;99.90;;;;;;5031800;28;20132;-84
2022/01/09 07:09:26;;;;;;;3.03;0.93;;;4.90;99.90;;;;;;5032049;28;20045;-84
2022/01/09 07:11:52;;;;;;;5.28;1.05;;;4.90;99.90;;;;;;5015579;28;20048;-83
2022/01/09 07:14:17;;;;;;;0.70;0.52;;;4.90;99.90;;;;;;5031829;28;20052;-83
2022/01/09 07:16:43;;;;;;;3.67;1.02;;;4.80;99.90;;;;;;5015055;28;20402;-83
2022/01/09 07:19:09;;;;;;;6.97;1.15;;;4.80;99.90;;;;;;5015396;28;20042;-83
2022/01/09 07:21:34;;;;;;;1.75;1.13;;;4.80;99.90;;;;;;5031871;28;20041;-83
2022/01/09 07:24:00;;;;;;;2.33;1.08;;;4.70;99.90;;;;;;5015311;28;20419;-83
2022/01/09 07:26:25;;;;;;;4.32;0.80;;;4.70;99.90;;;;;;5015100;28;20041;-83
2022/01/09 07:28:51;;;;;;;1.70;0.75;;;4.70;99.90;;;;;;5015405;28;20414;-83
2022/01/09 07:31:16;;;;;;;2.47;1.15;;;4.70;99.90;;;;;;5015177;28;20095;-83
2022/01/09 07:33:42;;;;;;;2.30;0.80;;;4.90;99.90;;;;;;5031702;28;20069;-83
2022/01/09 07:36:08;;;;;;;2.75;1.10;;;4.80;99.90;;;;;;5014923;28;20542;-84
2022/01/09 07:38:34;;;;;;;3.50;0.82;;;4.80;99.90;;;;;;5015203;28;20045;-83
2022/01/09 07:40:59;;;;;;;4.30;1.15;;;4.80;99.90;;;;;;5015282;28;20040;-83
2022/01/09 07:43:25;;;;;;;2.20;0.75;;;4.80;99.90;;;;;;5015185;28;20502;-83
2022/01/09 07:46:01;;;;;;;0.65;0.60;;;4.80;99.90;;;;;;5011890;28;20498;-83
2022/01/09 07:48:26;;;;;;;2.83;1.33;;;4.80;99.90;;;;;;5022750;28;20045;-83
2022/01/09 07:50:52;;;;;;;4.78;1.05;;;4.70;99.90;;;;;;5003578;28;20041;-83
2022/01/09 07:53:23;;;;;;;1.52;0.82;;;4.70;99.90;;;;;;4995787;28;20041;-83
2022/01/09 07:55:49;;;;;;;2.85;1.02;;;4.70;99.90;;;;;;4995451;28;20046;-83
2022/01/09 07:58:14;;;;;;;5.25;1.80;;;4.70;99.90;;;;;;4995500;28;20034;-84
2022/01/09 08:00:41;;;;;;;3.53;0.70;;;4.70;99.90;;;;;;5020895;28;20121;-84
2022/01/09 08:03:06;;;;;;;3.72;1.17;;;4.70;99.90;;;;;;5018471;28;20073;-83
2022/01/09 08:05:32;;;;;;;1.20;0.57;;;4.70;99.90;;;;;;5015455;28;20139;-84
2022/01/09 08:07:57;;;;;;;1.40;0.70;;;4.70;99.90;;;;;;5032600;28;20434;-83
2022/01/09 08:10:23;;;;;;;2.28;0.80;;;4.70;99.90;;;;;;5018826;28;20060;-83
2022/01/09 08:12:48;;;;;;;4.47;1.50;;;4.70;99.90;;;;;;5018632;28;20034;-84
2022/01/09 08:15:14;;;;;;;3.63;1.10;;;4.70;99.90;;;;;;5018697;28;20037;-83
2022/01/09 08:17:44;;;;;;;4.40;0.88;;;4.70;99.90;;;;;;5018216;28;20033;-83
2022/01/09 08:20:12;;;;;;;6.22;0.80;;;4.70;99.90;;;;;;5018859;28;20540;-83
2022/01/09 08:22:38;;;;;;;0.77;0.60;;;4.70;99.90;;;;;;5034866;28;20049;-84
2022/01/09 08:25:05;;;;;;;11.10;0.88;;;4.70;99.90;;;;;;5034846;28;20041;-84
2022/01/09 08:27:31;;;;;;;2.00;1.05;;;4.70;99.90;;;;;;5018001;28;20044;-84
2022/01/09 08:29:57;;;;;;;0.75;0.45;;;4.80;99.90;;;;;;5018581;28;20033;-84
2022/01/09 08:32:30;;;;;;;1.35;1.13;;;4.70;99.90;;;;;;5014839;28;20029;-83
2022/01/09 08:34:56;;;;;;;1.20;0.52;;;4.70;99.90;;;;;;5018272;28;20033;-83
2022/01/09 08:37:22;;;;;;;0.32;0.32;;;4.70;99.90;;;;;;5029643;28;20045;-83
2022/01/09 08:39:48;;;;;;;0.40;0.40;;;4.60;99.90;;;;;;5022847;28;20051;-83
2022/01/09 08:42:13;;;;;;;1.50;0.50;;;4.60;99.90;;;;;;5018020;28;20044;-83
2022/01/09 08:44:39;;;;;;;0.63;0.60;;;4.60;99.90;;;;;;5018235;28;20554;-83
2022/01/09 08:47:05;;;;;;;1.45;0.95;;;4.50;99.90;;;;;;5017510;28;20038;-84
2022/01/09 08:49:31;;;;;;;0.20;0.20;;;4.50;99.90;;;;;;5017960;28;20049;-83
2022/01/09 08:52:09;;;;;;;3.20;1.15;;;4.50;99.90;;;;;;5030930;28;20041;-83
2022/01/09 08:54:34;;;;;;;1.65;0.70;;;4.50;99.90;;;;;;5018085;28;20060;-83
2022/01/09 08:57:00;;;;;;;4.03;1.95;;;4.50;99.90;;;;;;5017242;28;20042;-83
2022/01/09 08:59:26;;;;;;;2.50;0.70;;;4.50;99.90;;;;;;5012649;28;20038;-84
2022/01/09 09:01:52;;;;;;;2.42;1.15;;;4.60;99.90;;;;;;4997567;28;20029;-83
2022/01/09 09:04:17;;;;;;;2.85;0.88;;;4.60;99.90;;;;;;5029527;28;20049;-83
2022/01/09 09:06:43;;;;;;;2.03;0.85;;;4.60;99.90;;;;;;5032941;28;20049;-84
2022/01/09 09:09:09;;;;;;;3.28;1.25;;;4.70;99.90;;;;;;5016855;28;20063;-84
2022/01/09 09:11:39;;;;;;;1.23;0.50;;;4.70;99.90;;;;;;5032459;28;20116;-83
2022/01/09 09:14:05;;;;;;;0.32;0.32;;;4.70;99.90;;;;;;5016948;28;20040;-84
2022/01/09 09:16:31;;;;;;;5.97;1.05;;;4.70;99.90;;;;;;5032658;28;20045;-84
2022/01/09 09:18:57;;;;;;;2.13;1.05;;;4.70;99.90;;;;;;5033586;28;20037;-83
2022/01/09 09:21:23;;;;;;;0.30;0.30;;;4.70;99.90;;;;;;5017088;28;20508;-84
2022/01/09 09:23:49;;;;;;;3.05;0.70;;;4.80;99.90;;;;;;5033017;28;20029;-85
2022/01/09 09:26:16;;;;;;;3.33;0.80;;;4.80;99.90;;;;;;5016216;28;20557;-83
2022/01/09 09:28:42;;;;;;;0.50;0.40;;;4.90;99.90;;;;;;5028949;28;20045;-83
2022/01/09 09:31:08;;;;;;;0.50;0.50;;;4.80;99.90;;;;;;5011450;28;20049;-84
2022/01/09 09:33:34;;;;;;;1.75;0.70;;;4.80;99.90;;;;;;5016481;28;20045;-83
2022/01/09 09:36:15;;;;;;;0.43;0.43;;;4.80;99.90;;;;;;5029070;28;20120;-84
2022/01/09 09:38:41;;;;;;;8.13;0.85;;;4.80;99.90;;;;;;5003712;28;20041;-83
2022/01/09 09:41:06;;;;;;;3.03;0.40;;;4.80;99.90;;;;;;5032829;28;20033;-83
2022/01/09 09:43:32;;;;;;;0.45;0.43;;;4.80;99.90;;;;;;5016240;28;20030;-83
2022/01/09 09:45:58;;;;;;;3.10;1.35;;;4.80;99.90;;;;;;5016193;28;20410;-83
2022/01/09 09:48:23;;;;;;;0.63;0.50;;;4.80;99.90;;;;;;5032273;28;20099;-84
2022/01/09 09:50:49;;;;;;;0.30;0.30;;;4.80;99.90;;;;;;5016301;28;20048;-83
2022/01/09 09:53:14;;;;;;;1.85;0.60;;;4.90;99.90;;;;;;5016274;28;20399;-83
2022/01/09 09:55:41;;;;;;;1.55;0.95;;;4.80;99.90;;;;;;5016197;28;20128;-83
2022/01/09 09:58:07;;;;;;;1.25;1.15;;;4.90;99.90;;;;;;5015826;28;20033;-84
2022/01/09 10:00:33;;;;;;;5.38;1.75;;;4.90;99.90;;;;;;5015770;28;20041;-83
2022/01/09 10:03:00;;;;;;;0.57;0.50;;;5.00;99.90;;;;;;5015853;28;20380;-83
2022/01/09 10:05:33;;;;;;;13.20;3.10;;;5.00;99.90;;;;;;5032435;28;20045;-83
2022/01/09 10:08:07;;;;;;;0.28;0.28;;;5.00;99.90;;;;;;5015938;28;20045;-83
2022/01/09 10:10:34;;;;;;;0.60;0.30;;;5.10;99.90;;;;;;5015512;28;20064;-84
2022/01/09 10:13:15;;;;;;;6.00;1.27;;;5.10;99.90;;;;;;5015860;28;20091;-83
2022/01/09 10:15:49;;;;;;;0.55;0.45;;;5.20;99.90;;;;;;5015433;28;20049;-84
2022/01/09 10:18:39;;;;;;;8.00;1.92;;;5.30;99.90;;;;;;5015590;28;20091;-83
2022/01/09 10:21:17;;;;;;;6.32;1.00;;;5.30;99.90;;;;;;5015433;28;20168;-83
2022/01/09 10:24:07;;;;;;;1.95;1.08;;;5.40;99.90;;;;;;5032265;28;20041;-82
2022/01/09 10:26:36;;;;;;;5.85;1.27;;;5.40;99.90;;;;;;5037283;28;20033;-83
2022/01/09 10:29:03;;;;;;;3.25;1.35;;;5.40;99.90;;;;;;5015494;28;20044;-83
2022/01/09 10:31:29;;;;;;;0.32;0.32;;;5.40;99.90;;;;;;5013441;28;20513;-83
2022/01/09 10:34:08;;;;;;;4.57;1.05;;;5.50;99.90;;;;;;5012776;28;20033;-82
2022/01/09 10:36:40;;;;;;;4.95;1.20;;;5.50;99.90;;;;;;5008974;28;20037;-83
2022/01/09 10:39:09;;;;;;;6.57;1.08;;;5.50;99.90;;;;;;5031625;28;20040;-84
2022/01/09 10:41:51;;;;;;;1.27;0.70;;;5.50;99.90;;;;;;5031561;28;20510;-84
2022/01/09 10:44:22;;;;;;;1.25;0.77;;;5.50;99.90;;;;;;5014856;28;20049;-84
2022/01/09 10:46:56;;;;;;;0.95;0.70;;;5.50;99.90;;;;;;5013709;28;20041;-84
2022/01/09 10:49:22;;;;;;;31.63;1.15;;;5.40;99.90;;;;;;5030725;28;20052;-84
2022/01/09 10:51:48;;;;;;;11.93;1.20;;;5.40;99.90;;;;;;5030836;28;20042;-83
2022/01/09 10:54:32;;;;;;;3.60;1.50;;;5.40;99.90;;;;;;5014523;28;20086;-83
2022/01/09 10:57:18;;;;;;;0.45;0.45;;;5.50;99.90;;;;;;5008228;28;20050;-84
2022/01/09 10:59:45;;;;;;;3.22;1.55;;;5.60;99.90;;;;;;5031638;28;20125;-83
2022/01/09 11:02:12;;;;;;;9.65;1.30;;;5.70;99.90;;;;;;5013950;28;20037;-83
2022/01/09 11:04:48;;;;;;;2.70;0.50;;;5.70;99.90;;;;;;5029382;28;20037;-85
2022/01/09 11:07:15;;;;;;;2.75;1.00;;;5.70;99.90;;;;;;5030319;28;20079;-84
2022/01/09 11:09:46;;;;;;;9.35;0.82;;;5.80;99.90;;;;;;5028476;28;20042;-83
2022/01/09 11:12:19;;;;;;;5.05;0.80;;;5.70;99.90;;;;;;5030720;28;20513;-84
2022/01/09 11:14:49;;;;;;;1.38;0.95;;;5.80;99.90;;;;;;5012410;28;20033;-83
2022/01/09 11:17:17;;;;;;;1.45;0.95;;;5.80;99.90;;;;;;5029972;28;20448;-84
2022/01/09 11:20:17;;;;;;;0.40;0.40;;;5.80;99.90;;;;;;5030852;28;20034;-84
2022/01/09 11:22:43;;;;;;;2.58;0.40;;;5.90;99.90;;;;;;5044423;28;20037;-84
2022/01/09 11:25:37;;;;;;;4.93;1.25;;;5.90;99.90;;;;;;5014063;28;20514;-84
2022/01/09 11:28:22;;;;;;;1.38;0.70;;;5.90;99.90;;;;;;5021824;28;20050;-84
2022/01/09 11:31:13;;;;;;;0.93;0.50;;;5.90;99.90;;;;;;5011752;28;20073;-84
2022/01/09 11:33:50;;;;;;;3.10;1.10;;;5.80;99.90;;;;;;5024039;28;20372;-85
2022/01/09 11:36:23;;;;;;;2.33;0.98;;;5.80;99.90;;;;;;5012969;28;20048;-85
2022/01/09 11:39:14;;;;;;;1.58;1.08;;;5.80;99.90;;;;;;5012391;28;20042;-84
2022/01/09 11:41:45;;;;;;;4.10;1.42;;;5.80;99.90;;;;;;5012291;28;20068;-84
2022/01/09 11:44:12;;;;;;;1.90;1.05;;;5.90;99.90;;;;;;5012626;28;20033;-84
2022/01/09 11:47:05;;;;;;;0.60;0.60;;;6.00;99.90;;;;;;5028061;28;20038;-84
2022/01/09 11:49:39;;;;;;;7.45;1.27;;;6.10;99.90;;;;;;5042356;28;20038;-84
2022/01/09 11:52:06;;;;;;;0.68;0.55;;;6.30;99.90;;;;;;5029427;28;20049;-84
2022/01/09 11:54:56;;;;;;;2.05;0.77;;;6.40;99.90;;;;;;5029154;28;20076;-84
2022/01/09 11:57:36;;;;;;;4.63;1.50;;;6.50;99.90;;;;;;4992906;28;20038;-84
2022/01/09 12:00:06;;;;;;;0.70;0.70;;;6.50;99.90;;;;;;4993472;28;20041;-83
2022/01/09 12:02:37;;;;;;;3.42;1.17;;;6.50;99.90;;;;;;5022447;28;20065;-84
2022/01/09 12:05:08;;;;;;;1.50;1.17;;;6.60;99.90;;;;;;5012984;28;20036;-84
2022/01/09 12:07:36;;;;;;;0.85;0.50;;;6.60;99.90;;;;;;5029207;28;20037;-84
2022/01/09 12:10:22;;;;;;;2.08;1.05;;;6.60;99.90;;;;;;5029061;28;20041;-84
2022/01/09 12:12:59;;;;;;;2.20;1.13;;;6.60;99.90;;;;;;5013197;28;20033;-83
2022/01/09 12:15:40;;;;;;;1.23;0.60;;;6.40;99.90;;;;;;5028405;28;20042;-83
2022/01/09 12:18:27;;;;;;;6.25;0.68;;;6.20;99.90;;;;;;4992746;28;20125;-84
2022/01/09 12:20:53;;;;;;;1.65;0.75;;;6.10;99.90;;;;;;5012425;28;20513;-83
2022/01/09 12:23:22;;;;;;;4.10;1.05;;;6.10;99.90;;;;;;5012285;28;20045;-83
2022/01/09 12:25:52;;;;;;;0.75;0.73;;;6.10;99.90;;;;;;5011869;28;20029;-84
2022/01/09 12:28:33;;;;;;;1.35;0.80;;;6.10;99.90;;;;;;5028406;28;20053;-83
2022/01/09 12:31:00;;;;;;;0.82;0.82;;;6.10;99.90;;;;;;5028989;28;20046;-83
2022/01/09 12:33:27;;;;;;;8.20;0.90;;;6.10;99.90;;;;;;5029101;28;20418;-83
2022/01/09 12:36:06;;;;;;;1.27;0.93;;;6.10;99.90;;;;;;5029528;28;20053;-83
2022/01/09 12:38:40;;;;;;;4.18;0.85;;;6.10;99.90;;;;;;5012741;28;20037;-83
2022/01/09 12:41:15;;;;;;;3.33;0.67;;;6.20;99.90;;;;;;5025950;28;20045;-83
2022/01/09 12:43:41;;;;;;;3.83;1.17;;;6.00;99.90;;;;;;5028047;28;20946;-83
2022/01/09 12:46:17;;;;;;;7.13;1.20;;;6.00;99.90;;;;;;5015357;28;20195;-83
2022/01/09 12:49:07;;;;;;;9.52;1.58;;;6.00;99.90;;;;;;5016234;28;20041;-83
2022/01/09 12:51:36;;;;;;;0.32;0.30;;;5.90;99.90;;;;;;5005479;28;20037;-83
2022/01/09 12:54:06;;;;;;;16.67;2.05;;;5.90;99.90;;;;;;5015950;28;20128;-83
2022/01/09 12:56:34;;;;;;;1.55;0.73;;;5.90;99.90;;;;;;5014801;28;20455;-83
2022/01/09 12:59:08;;;;;;;9.60;1.00;;;5.80;99.90;;;;;;5015235;28;20117;-84
2022/01/09 13:01:40;;;;;;;2.85;0.73;;;5.70;99.90;;;;;;5015246;28;20048;-83